Time;durP1;ratioP1;P1;durP2;ratioP2;P2;SDS_P1;SDS_P2;PMS_P1;PMS_P2;Temp;Humidity;BMP_temperature;BMP_pressure;BME280_temperature;BME280_humidity;BME280_pressure;Samples;Min_cycle;Max_cycle;Signal;HPM_P1;HPM_P2
2022/05/31 00:00:29;;;;;;;35.55;33.75;;;11.90;72.90;;;;;;5090307;28;20028;-74
2022/05/31 00:02:56;;;;;;;37.50;35.50;;;11.90;73.10;;;;;;5090112;28;20496;-72
2022/05/31 00:05:22;;;;;;;37.38;35.28;;;11.90;73.20;;;;;;5071953;28;20547;-73
2022/05/31 00:07:48;;;;;;;36.45;34.42;;;11.90;73.10;;;;;;5090224;28;20039;-74
2022/05/31 00:10:15;;;;;;;37.45;35.55;;;11.90;73.10;;;;;;5090095;28;20402;-72
2022/05/31 00:12:41;;;;;;;35.40;33.67;;;11.90;73.30;;;;;;5072175;28;20497;-72
2022/05/31 00:15:08;;;;;;;;;;;11.90;73.50;;;;;;5090422;28;20046;-72
2022/05/31 00:17:34;;;;;;;35.47;33.60;;;11.90;73.40;;;;;;5089959;28;19954;-74
2022/05/31 00:19:59;;;;;;;37.10;35.13;;;11.90;73.20;;;;;;5071855;28;20474;-73
2022/05/31 00:22:27;;;;;;;36.55;34.15;;;11.90;73.30;;;;;;5090224;28;20028;-73
2022/05/31 00:24:54;;;;;;;38.10;35.95;;;11.90;73.30;;;;;;5089720;28;20032;-73
2022/05/31 00:27:22;;;;;;;38.00;35.83;;;11.90;73.40;;;;;;5089817;28;20020;-72
2022/05/31 00:29:48;;;;;;;37.47;35.47;;;11.80;73.40;;;;;;5071636;28;20544;-73
2022/05/31 00:32:18;;;;;;;38.00;35.95;;;11.80;73.60;;;;;;5071593;28;20020;-72
2022/05/31 00:34:47;;;;;;;36.17;34.28;;;11.70;73.60;;;;;;5089961;28;20032;-73
2022/05/31 00:37:13;;;;;;;38.35;36.25;;;11.70;73.60;;;;;;5089609;28;20020;-72
2022/05/31 00:39:39;;;;;;;37.20;35.28;;;11.60;73.70;;;;;;5089539;28;20057;-73
2022/05/31 00:42:07;;;;;;;38.22;36.03;;;11.50;73.80;;;;;;5089571;28;20028;-73
2022/05/31 00:44:34;;;;;;;38.80;36.67;;;11.40;73.90;;;;;;5089433;28;20028;-72
2022/05/31 00:47:13;;;;;;;37.92;35.83;;;11.30;74.00;;;;;;5089501;28;20053;-73
2022/05/31 00:49:49;;;;;;;38.67;36.63;;;11.30;74.20;;;;;;5071278;28;20028;-74
2022/05/31 00:52:17;;;;;;;37.17;35.17;;;11.20;74.20;;;;;;5089273;28;20020;-74
2022/05/31 00:55:00;;;;;;;38.53;36.42;;;11.10;74.20;;;;;;5089229;28;20050;-72
2022/05/31 00:57:27;;;;;;;39.88;37.58;;;11.10;74.40;;;;;;5089159;28;20026;-72
2022/05/31 00:59:59;;;;;;;40.83;38.63;;;11.00;74.30;;;;;;5089151;28;20020;-73
2022/05/31 01:02:25;;;;;;;41.55;39.05;;;11.00;74.40;;;;;;5088899;28;20065;-74
2022/05/31 01:04:55;;;;;;;41.03;38.90;;;10.90;74.40;;;;;;5089052;28;20039;-74
2022/05/31 01:07:22;;;;;;;42.63;40.15;;;10.90;74.50;;;;;;5088570;28;20462;-74
2022/05/31 01:09:49;;;;;;;41.47;39.28;;;10.80;74.50;;;;;;5088922;28;20055;-73
2022/05/31 01:12:16;;;;;;;40.53;38.33;;;10.70;74.60;;;;;;5088892;28;20023;-72
2022/05/31 01:14:42;;;;;;;40.58;38.38;;;10.70;74.70;;;;;;5088869;28;20029;-74
2022/05/31 01:17:12;;;;;;;41.88;39.70;;;10.60;74.80;;;;;;5088802;28;20046;-74
2022/05/31 01:19:57;;;;;;;42.08;39.45;;;10.60;75.00;;;;;;5088905;28;20028;-74
2022/05/31 01:22:51;;;;;;;42.47;40.17;;;10.50;75.00;;;;;;5088766;28;20386;-73
2022/05/31 01:25:37;;;;;;;42.25;39.83;;;10.40;75.00;;;;;;5088782;28;20024;-72
2022/05/31 01:28:21;;;;;;;43.17;40.88;;;10.40;75.00;;;;;;5070806;28;20441;-74
2022/05/31 01:31:15;;;;;;;44.65;41.65;;;10.40;75.00;;;;;;5088678;28;20027;-73
2022/05/31 01:33:53;;;;;;;41.90;39.42;;;10.30;75.00;;;;;;5088481;28;20411;-72
2022/05/31 01:36:25;;;;;;;40.33;38.13;;;10.30;75.20;;;;;;5088494;28;20020;-73
2022/05/31 01:39:23;;;;;;;41.63;39.20;;;10.20;75.30;;;;;;5070230;28;20024;-74
2022/05/31 01:41:55;;;;;;;40.28;38.17;;;10.20;75.50;;;;;;5088200;28;20474;-73
2022/05/31 01:44:25;;;;;;;38.05;36.10;;;10.20;75.30;;;;;;5088338;28;20028;-73
2022/05/31 01:46:54;;;;;;;37.22;35.22;;;10.10;75.50;;;;;;5088297;28;20527;-74
2022/05/31 01:49:22;;;;;;;37.75;35.78;;;10.10;75.70;;;;;;5088267;28;20090;-73
2022/05/31 01:51:49;;;;;;;41.55;39.33;;;10.00;75.80;;;;;;5088160;28;20031;-74
2022/05/31 01:54:15;;;;;;;;;;;10.00;76.10;;;;;;5070575;28;20495;-73
2022/05/31 01:56:43;;;;;;;40.53;38.17;;;10.00;76.00;;;;;;5088091;28;19904;-73
2022/05/31 01:59:10;;;;;;;41.40;39.13;;;10.00;75.80;;;;;;5070202;28;20028;-73
2022/05/31 02:01:39;;;;;;;39.85;37.72;;;9.90;75.70;;;;;;5088196;28;20023;-72
2022/05/31 02:04:05;;;;;;;42.72;40.13;;;9.90;75.80;;;;;;5046423;28;20118;-74
2022/05/31 02:06:37;;;;;;;40.72;38.42;;;9.90;75.80;;;;;;5046537;28;20485;-72
2022/05/31 02:09:05;;;;;;;40.25;38.05;;;9.90;75.90;;;;;;5047801;28;20476;-73
2022/05/31 02:11:31;;;;;;;38.97;36.53;;;9.90;75.90;;;;;;5047795;28;20035;-73
2022/05/31 02:13:58;;;;;;;40.15;38.05;;;9.90;76.10;;;;;;5047698;28;20487;-73
2022/05/31 02:16:25;;;;;;;39.72;37.65;;;9.90;76.20;;;;;;5047604;28;20032;-74
2022/05/31 02:21:35;;;;;;;41.03;38.58;;;9.90;76.30;;;;;;5047905;28;20069;-73
2022/05/31 02:24:06;;;;;;;41.20;38.90;;;9.90;76.20;;;;;;5047568;28;20021;-72
2022/05/31 02:26:32;;;;;;;39.53;37.42;;;9.90;76.30;;;;;;5047627;28;20490;-74
2022/05/31 02:28:57;;;;;;;40.28;37.97;;;9.80;76.20;;;;;;5046228;28;20147;-72
2022/05/31 02:31:23;;;;;;;41.90;39.40;;;9.80;76.30;;;;;;5047552;28;20108;-74
2022/05/31 02:33:49;;;;;;;42.35;40.05;;;9.80;76.30;;;;;;5046280;28;20098;-73
2022/05/31 02:36:15;;;;;;;40.95;38.75;;;9.70;76.30;;;;;;5047464;28;20033;-73
2022/05/31 02:38:41;;;;;;;40.10;37.47;;;9.70;76.30;;;;;;5029403;28;20140;-73
2022/05/31 02:41:06;;;;;;;40.83;38.63;;;9.70;76.30;;;;;;5047380;28;20035;-74
2022/05/31 02:43:32;;;;;;;40.10;37.95;;;9.70;76.40;;;;;;5046061;28;20506;-73
2022/05/31 02:46:01;;;;;;;40.17;37.55;;;9.60;76.40;;;;;;5047319;28;20428;-73
2022/05/31 02:48:26;;;;;;;39.67;37.67;;;9.60;76.50;;;;;;5029327;28;20029;-72
2022/05/31 02:50:52;;;;;;;38.30;36.17;;;9.60;77.00;;;;;;5047247;28;20029;-74
2022/05/31 02:53:18;;;;;;;40.92;38.55;;;9.50;76.50;;;;;;5045988;28;20120;-74
2022/05/31 02:55:44;;;;;;;40.72;38.53;;;9.50;76.60;;;;;;5047204;28;20392;-74
2022/05/31 02:58:09;;;;;;;39.90;37.60;;;9.50;76.60;;;;;;5047213;28;20024;-74
2022/05/31 03:00:35;;;;;;;40.58;38.47;;;9.50;76.60;;;;;;5045963;28;20435;-74
2022/05/31 03:03:01;;;;;;;41.67;39.22;;;9.40;76.70;;;;;;5070045;28;20054;-73
2022/05/31 03:05:27;;;;;;;40.75;38.58;;;9.40;76.60;;;;;;5069459;28;20032;-73
2022/05/31 03:07:52;;;;;;;41.47;39.35;;;9.30;76.60;;;;;;5087343;28;20032;-73
2022/05/31 03:10:18;;;;;;;40.33;38.20;;;9.30;76.60;;;;;;5087291;28;20043;-73
2022/05/31 03:12:44;;;;;;;41.00;38.63;;;9.20;76.70;;;;;;5087235;28;20071;-73
2022/05/31 03:15:17;;;;;;;40.92;38.53;;;9.10;76.70;;;;;;5087169;28;20063;-74
2022/05/31 03:18:03;;;;;;;41.20;38.92;;;9.10;76.90;;;;;;5087331;28;20020;-73
2022/05/31 03:20:35;;;;;;;41.80;39.38;;;9.00;76.90;;;;;;5087332;28;20465;-73
2022/05/31 03:23:06;;;;;;;40.45;38.35;;;8.90;76.80;;;;;;5069016;28;20069;-74
2022/05/31 03:25:32;;;;;;;41.80;39.70;;;8.90;76.90;;;;;;5087231;28;20021;-72
2022/05/31 03:27:59;;;;;;;;;;;8.80;76.90;;;;;;5087568;28;20067;-72
2022/05/31 03:30:25;;;;;;;41.38;39.03;;;8.80;77.00;;;;;;5088669;28;19996;-74
2022/05/31 03:32:53;;;;;;;40.72;38.53;;;8.70;76.80;;;;;;5090859;28;20111;-73
2022/05/31 03:35:19;;;;;;;41.38;39.08;;;8.70;76.80;;;;;;5091007;28;20023;-74
2022/05/31 03:37:44;;;;;;;41.13;38.92;;;8.60;76.90;;;;;;5090882;28;20103;-73
2022/05/31 03:40:55;;;;;;;40.45;38.15;;;8.60;77.00;;;;;;5090480;28;20066;-73
2022/05/31 03:43:03;;;;;;;40.37;38.33;;;8.60;77.10;;;;;;5075373;28;20111;-73
2022/05/31 03:45:37;;;;;;;39.97;37.97;;;8.60;77.20;;;;;;5090778;28;20099;-75
2022/05/31 03:48:04;;;;;;;41.40;39.10;;;8.50;77.20;;;;;;5072502;28;20428;-74
2022/05/31 03:50:30;;;;;;;40.17;38.15;;;8.50;77.30;;;;;;5090613;28;20058;-73
2022/05/31 03:52:56;;;;;;;40.58;38.38;;;8.50;77.40;;;;;;5090476;28;20031;-74
2022/05/31 03:55:21;;;;;;;39.97;37.70;;;8.50;77.40;;;;;;5090523;28;20043;-74
2022/05/31 03:57:49;;;;;;;40.58;38.05;;;8.50;77.50;;;;;;5072079;28;20038;-73
2022/05/31 04:00:16;;;;;;;39.40;37.40;;;8.50;77.50;;;;;;5072049;28;20121;-73
2022/05/31 04:02:41;;;;;;;;;;;8.50;77.60;;;;;;5072184;28;20640;-73
2022/05/31 04:05:07;;;;;;;38.95;36.63;;;8.50;77.60;;;;;;5071997;28;20018;-72
2022/05/31 04:07:34;;;;;;;38.95;36.95;;;8.50;77.40;;;;;;5090285;28;20490;-74
2022/05/31 04:10:04;;;;;;;38.03;35.88;;;8.50;77.50;;;;;;5090142;28;20574;-73
2022/05/31 04:12:30;;;;;;;39.22;37.08;;;8.50;77.50;;;;;;5089999;28;20036;-74
2022/05/31 04:14:57;;;;;;;39.53;37.35;;;8.50;77.70;;;;;;5055196;28;20133;-74
2022/05/31 04:17:22;;;;;;;;;;;8.60;77.80;;;;;;5090601;28;20506;-74
2022/05/31 04:19:48;;;;;;;40.00;37.50;;;8.60;77.70;;;;;;5055069;28;20049;-73
2022/05/31 04:22:14;;;;;;;40.03;37.83;;;8.60;77.50;;;;;;5089817;28;20032;-74
2022/05/31 04:24:39;;;;;;;39.13;37.13;;;8.60;77.50;;;;;;5089877;28;20035;-74
2022/05/31 04:27:06;;;;;;;37.10;35.10;;;8.60;77.60;;;;;;5089878;28;20140;-73
2022/05/31 04:29:34;;;;;;;40.60;38.40;;;8.60;77.70;;;;;;5089808;28;20429;-74
2022/05/31 04:31:59;;;;;;;39.40;37.22;;;8.60;77.80;;;;;;5089807;28;20441;-74
2022/05/31 04:34:25;;;;;;;39.10;36.78;;;8.60;77.90;;;;;;5055000;28;20178;-73
2022/05/31 04:36:51;;;;;;;38.58;36.22;;;8.60;77.90;;;;;;5089919;28;20473;-73
2022/05/31 04:39:16;;;;;;;39.13;37.05;;;8.60;77.90;;;;;;5071515;28;20051;-72
2022/05/31 04:41:42;;;;;;;38.67;36.33;;;8.60;77.90;;;;;;5070513;28;20425;-72
2022/05/31 04:44:08;;;;;;;38.83;36.50;;;8.60;78.00;;;;;;5071305;28;20451;-74
2022/05/31 04:46:35;;;;;;;39.03;37.05;;;8.60;78.00;;;;;;5089432;28;20032;-73
2022/05/31 04:49:02;;;;;;;38.90;36.90;;;8.60;78.00;;;;;;5089569;28;20020;-73
2022/05/31 04:51:29;;;;;;;39.90;37.42;;;8.60;78.00;;;;;;5071458;28;20031;-73
2022/05/31 04:53:55;;;;;;;38.63;36.75;;;8.60;77.90;;;;;;5089362;28;20036;-74
2022/05/31 04:56:22;;;;;;;41.08;38.72;;;8.60;77.90;;;;;;5054364;28;20067;-74
2022/05/31 04:58:50;;;;;;;41.17;38.78;;;8.60;78.00;;;;;;5089289;28;20386;-74
2022/05/31 05:01:16;;;;;;;39.65;37.53;;;8.60;78.10;;;;;;5089222;28;20028;-74
2022/05/31 05:03:43;;;;;;;39.83;37.42;;;8.60;78.20;;;;;;5067561;28;20087;-74
2022/05/31 05:06:11;;;;;;;38.78;36.58;;;8.60;78.30;;;;;;5068893;28;20039;-73
2022/05/31 05:08:37;;;;;;;38.72;36.72;;;8.60;78.30;;;;;;5050893;28;20074;-74
2022/05/31 05:11:05;;;;;;;40.20;37.85;;;8.70;78.30;;;;;;5067613;28;20084;-73
2022/05/31 05:13:31;;;;;;;36.78;34.92;;;8.70;78.40;;;;;;5067624;28;20526;-74
2022/05/31 05:15:59;;;;;;;38.88;36.88;;;8.70;78.40;;;;;;5050683;28;20131;-72
2022/05/31 05:18:25;;;;;;;38.58;36.58;;;8.80;78.50;;;;;;5068633;28;20475;-74
2022/05/31 05:20:51;;;;;;;;;;;8.80;78.50;;;;;;5067714;28;20098;-74
2022/05/31 05:23:17;;;;;;;40.17;37.75;;;8.80;78.40;;;;;;5067082;28;20366;-74
2022/05/31 05:25:51;;;;;;;39.25;37.28;;;8.80;78.20;;;;;;5066926;28;20105;-74
2022/05/31 05:31:01;;;;;;;39.78;37.65;;;8.90;78.30;;;;;;5067483;28;20043;-74
2022/05/31 05:33:28;;;;;;;39.10;36.97;;;8.90;78.30;;;;;;5068066;28;20057;-73
2022/05/31 05:35:53;;;;;;;;;;;8.90;78.30;;;;;;5067435;28;20447;-74
2022/05/31 05:38:19;;;;;;;36.58;34.78;;;9.00;78.40;;;;;;5068217;28;19911;-74
2022/05/31 05:40:44;;;;;;;39.35;37.33;;;9.00;78.30;;;;;;5066752;28;20094;-73
2022/05/31 05:43:10;;;;;;;40.58;38.47;;;9.00;78.30;;;;;;5068036;28;20085;-72
2022/05/31 05:45:37;;;;;;;37.83;35.80;;;9.20;78.40;;;;;;5068003;28;20025;-72
2022/05/31 05:48:04;;;;;;;41.17;38.47;;;9.30;78.20;;;;;;5068047;28;20394;-72
2022/05/31 05:50:32;;;;;;;39.70;37.53;;;9.40;78.30;;;;;;5068000;28;20036;-74
2022/05/31 05:53:04;;;;;;;36.83;34.92;;;9.40;78.20;;;;;;5066113;28;20119;-72
2022/05/31 05:55:31;;;;;;;32.55;30.92;;;9.50;78.50;;;;;;5063994;28;20367;-72
2022/05/31 05:57:56;;;;;;;27.63;26.23;;;9.90;79.20;;;;;;5066405;28;20028;-72
2022/05/31 06:00:23;;;;;;;22.98;21.52;;;11.20;79.20;;;;;;5066621;28;20039;-73
2022/05/31 06:03:15;;;;;;;17.70;16.70;;;13.10;77.00;;;;;;5077078;28;20507;-73
2022/05/31 06:05:43;;;;;;;14.45;13.57;;;14.90;74.20;;;;;;5088076;28;20027;-72
2022/05/31 06:08:15;;;;;;;13.43;12.55;;;16.60;71.70;;;;;;5087915;28;20030;-71
2022/05/31 06:10:59;;;;;;;10.75;9.85;;;17.70;69.80;;;;;;5087930;28;20055;-75
2022/05/31 06:13:30;;;;;;;9.63;8.98;;;18.70;68.30;;;;;;5087639;28;20020;-73
2022/05/31 06:15:56;;;;;;;6.10;5.10;;;19.30;67.50;;;;;;5087408;28;20394;-74
2022/05/31 06:18:29;;;;;;;6.70;5.30;;;19.90;66.90;;;;;;5087504;28;20035;-75
2022/05/31 06:20:58;;;;;;;4.75;3.63;;;20.60;66.40;;;;;;5087896;28;20074;-73
2022/05/31 06:23:24;;;;;;;10.05;9.25;;;21.00;65.60;;;;;;5069223;28;20039;-73
2022/05/31 06:25:51;;;;;;;6.97;6.13;;;21.40;64.80;;;;;;5087176;28;20087;-74
2022/05/31 06:28:16;;;;;;;8.30;7.70;;;21.70;64.60;;;;;;5069367;28;20036;-74
2022/05/31 06:30:42;;;;;;;5.47;2.97;;;22.10;63.90;;;;;;5087108;28;20024;-72
2022/05/31 06:33:08;;;;;;;3.92;2.20;;;22.40;63.50;;;;;;5087169;28;20456;-74
2022/05/31 06:35:33;;;;;;;6.35;1.98;;;22.80;63.40;;;;;;5087085;28;20095;-72
2022/05/31 06:37:59;;;;;;;3.42;2.08;;;23.20;63.20;;;;;;5086829;28;20253;-75
2022/05/31 06:40:25;;;;;;;;;;;23.60;62.50;;;;;;5087666;28;20153;-73
2022/05/31 06:42:51;;;;;;;5.68;1.50;;;23.90;62.30;;;;;;5087123;28;20018;-73
2022/05/31 06:45:16;;;;;;;;;;;24.10;61.90;;;;;;5087756;28;20032;-75
2022/05/31 06:47:42;;;;;;;8.20;1.50;;;24.20;62.00;;;;;;5087149;28;19908;-74
2022/05/31 06:50:08;;;;;;;;;;;24.30;62.10;;;;;;5087480;28;20036;-73
2022/05/31 06:58:03;;;;;;;2.60;0.95;;;24.70;61.00;;;;;;5086884;28;20119;-73
2022/05/31 07:00:29;;;;;;;5.30;1.40;;;24.60;60.60;;;;;;5086417;28;20371;-73
2022/05/31 07:02:55;;;;;;;;;;;24.40;60.40;;;;;;5087016;28;20044;-72
2022/05/31 07:05:22;;;;;;;5.97;1.60;;;24.10;60.60;;;;;;5087800;28;19908;-72
2022/05/31 07:07:47;;;;;;;4.53;1.50;;;23.80;61.60;;;;;;5091162;28;20115;-72
2022/05/31 07:10:13;;;;;;;;;;;23.40;61.00;;;;;;5073178;28;20198;-75
2022/05/31 07:12:40;;;;;;;4.82;0.95;;;23.20;61.50;;;;;;5090592;28;19904;-74
2022/05/31 07:15:06;;;;;;;3.33;0.80;;;23.00;61.40;;;;;;5090545;28;20121;-74
2022/05/31 07:17:32;;;;;;;3.13;1.10;;;22.80;61.10;;;;;;5090660;28;20030;-74
2022/05/31 07:19:58;;;;;;;;;;;22.60;61.00;;;;;;5091038;28;20024;-72
2022/05/31 07:22:24;;;;;;;3.45;1.20;;;22.40;61.60;;;;;;5072204;28;20006;-75
2022/05/31 07:24:49;;;;;;;5.55;1.02;;;22.40;62.00;;;;;;5072274;28;20111;-73
2022/05/31 07:27:15;;;;;;;;;;;22.40;61.60;;;;;;5090484;28;20043;-74
2022/05/31 07:29:41;;;;;;;6.00;1.30;;;22.40;61.80;;;;;;5090141;28;20381;-74
2022/05/31 07:32:07;;;;;;;3.38;0.80;;;22.30;61.70;;;;;;5090371;28;20051;-74
2022/05/31 07:34:33;;;;;;;;;;;22.10;61.40;;;;;;5072957;28;20029;-73
2022/05/31 07:37:00;;;;;;;4.00;1.15;;;21.80;61.70;;;;;;5090742;28;19904;-73
2022/05/31 07:39:26;;;;;;;5.82;1.35;;;21.60;61.50;;;;;;5090344;28;20234;-73
2022/05/31 07:41:54;;;;;;;8.68;2.25;;;21.20;61.10;;;;;;5090107;28;20046;-73
2022/05/31 07:44:21;;;;;;;2.80;0.90;;;20.90;61.80;;;;;;5090600;28;20049;-73
2022/05/31 07:46:47;;;;;;;3.65;0.82;;;21.20;62.00;;;;;;5090181;28;20032;-72
2022/05/31 07:49:13;;;;;;;5.15;1.23;;;21.80;61.80;;;;;;5089931;28;20113;-74
2022/05/31 07:51:39;;;;;;;3.53;1.20;;;22.80;61.50;;;;;;5071452;28;20416;-73
2022/05/31 07:54:05;;;;;;;;;;;23.70;60.10;;;;;;5071517;28;20263;-75
2022/05/31 07:56:31;;;;;;;4.35;1.02;;;24.40;60.00;;;;;;5071681;28;20002;-75
2022/05/31 07:58:56;;;;;;;;;;;25.00;59.10;;;;;;5089540;28;20040;-74
2022/05/31 08:01:25;;;;;;;2.70;1.00;;;24.50;58.30;;;;;;5089376;28;20379;-74
2022/05/31 08:03:52;;;;;;;6.22;1.70;;;24.20;58.90;;;;;;5070753;28;20406;-75
2022/05/31 08:06:20;;;;;;;4.53;1.40;;;24.10;58.50;;;;;;5088971;28;20485;-74
2022/05/31 08:08:46;;;;;;;3.20;0.98;;;24.70;58.60;;;;;;5089017;28;20079;-73
2022/05/31 08:11:21;;;;;;;2.97;0.90;;;25.70;58.00;;;;;;5088909;28;20470;-72
2022/05/31 08:13:47;;;;;;;3.20;0.85;;;26.90;57.10;;;;;;5089162;28;20035;-72
2022/05/31 08:16:16;;;;;;;6.22;0.98;;;28.10;56.70;;;;;;5088530;28;20378;-74
2022/05/31 08:18:43;;;;;;;7.47;1.17;;;28.40;55.00;;;;;;5105354;28;20035;-72
2022/05/31 08:21:11;;;;;;;6.35;1.10;;;27.90;53.70;;;;;;5106319;28;20030;-72
2022/05/31 08:23:37;;;;;;;5.18;0.90;;;27.30;53.60;;;;;;5087736;28;20108;-71
2022/05/31 08:26:03;;;;;;;6.72;1.58;;;26.40;53.60;;;;;;5109168;28;20043;-73
2022/05/31 08:28:30;;;;;;;4.10;1.40;;;25.70;54.00;;;;;;5109072;28;20029;-73
2022/05/31 08:31:01;;;;;;;5.10;1.50;;;25.90;54.90;;;;;;5108597;28;20076;-72
2022/05/31 08:33:27;;;;;;;5.50;0.98;;;26.70;54.50;;;;;;5108491;28;20068;-74
2022/05/31 08:35:54;;;;;;;4.18;1.10;;;27.40;54.30;;;;;;5108486;28;20077;-74
2022/05/31 08:38:19;;;;;;;5.90;1.38;;;28.00;53.60;;;;;;5108694;28;20024;-72
2022/05/31 08:41:03;;;;;;;3.85;0.80;;;28.50;53.70;;;;;;5090150;28;20484;-72
2022/05/31 08:43:47;;;;;;;2.60;0.77;;;28.90;53.40;;;;;;5088807;28;20020;-72
2022/05/31 08:46:51;;;;;;;4.30;0.95;;;28.20;52.70;;;;;;5106687;28;20106;-72
2022/05/31 08:49:19;;;;;;;2.85;0.63;;;27.70;53.90;;;;;;5107166;28;20486;-74
2022/05/31 08:51:53;;;;;;;1.40;0.77;;;27.30;54.90;;;;;;5105822;28;20030;-72
2022/05/31 08:57:20;;;;;;;0.20;0.10;;;26.70;57.40;;;;;;5108656;28;20512;-71
2022/05/31 09:00:14;;;;;;;0.20;0.20;;;26.40;57.60;;;;;;5108676;28;20481;-73
2022/05/31 09:02:47;;;;;;;0.40;0.17;;;26.60;58.40;;;;;;5096749;28;20500;-73
2022/05/31 09:05:22;;;;;;;0.70;0.25;;;27.40;59.20;;;;;;5107722;28;20023;-74
2022/05/31 09:08:07;;;;;;;1.73;0.52;;;28.20;59.40;;;;;;5107727;28;20019;-72
2022/05/31 09:11:01;;;;;;;0.38;0.20;;;29.30;60.00;;;;;;5107710;28;20077;-73
2022/05/31 09:13:46;;;;;;;0.30;0.20;;;29.60;58.00;;;;;;5108386;28;20028;-74
2022/05/31 09:16:17;;;;;;;0.32;0.15;;;28.30;56.50;;;;;;5108118;28;20032;-74
2022/05/31 09:18:59;;;;;;;1.02;0.43;;;27.20;57.50;;;;;;5108221;28;20081;-73
2022/05/31 09:21:34;;;;;;;0.17;0.10;;;27.40;59.10;;;;;;5107969;28;20015;-73
2022/05/31 09:24:02;;;;;;;0.35;0.20;;;27.50;57.40;;;;;;5106178;28;20501;-74
2022/05/31 09:26:54;;;;;;;0.65;0.25;;;26.90;56.50;;;;;;5106307;28;20032;-73
2022/05/31 09:29:33;;;;;;;0.65;0.40;;;25.70;55.60;;;;;;5108769;28;20027;-73
2022/05/31 09:32:23;;;;;;;0.00;0.00;;;24.60;55.70;;;;;;5108918;28;20088;-73
2022/05/31 09:34:57;;;;;;;0.93;0.05;;;23.70;56.50;;;;;;5109151;28;20049;-73
2022/05/31 09:37:42;;;;;;;1.05;0.38;;;23.90;58.10;;;;;;5108709;28;20015;-73
2022/05/31 09:40:40;;;;;;;1.75;0.40;;;23.90;57.50;;;;;;5089984;28;20024;-73
2022/05/31 09:43:09;;;;;;;1.10;0.30;;;23.30;57.20;;;;;;5108545;28;20023;-73
2022/05/31 09:45:39;;;;;;;0.85;0.45;;;22.50;57.70;;;;;;5108581;28;20031;-72
2022/05/31 09:48:05;;;;;;;0.43;0.32;;;22.10;57.80;;;;;;5108453;28;20566;-72
2022/05/31 09:50:31;;;;;;;1.10;0.43;;;21.60;57.50;;;;;;5089804;28;20027;-73
2022/05/31 09:52:57;;;;;;;;;;;21.30;57.50;;;;;;5105809;28;20028;-74
2022/05/31 09:58:25;;;;;;;0.43;0.22;;;21.40;58.60;;;;;;5108319;28;20085;-72
2022/05/31 10:01:15;;;;;;;0.47;0.10;;;22.20;58.90;;;;;;5108617;28;20020;-73
2022/05/31 10:03:46;;;;;;;1.75;0.65;;;23.50;59.20;;;;;;5107655;28;20390;-74
2022/05/31 10:06:25;;;;;;;0.20;0.10;;;25.10;59.80;;;;;;5109156;28;20016;-73
2022/05/31 10:08:53;;;;;;;0.55;0.20;;;26.40;58.50;;;;;;5108653;28;20100;-73
2022/05/31 10:11:32;;;;;;;0.60;0.17;;;26.60;57.00;;;;;;5108498;28;20419;-74
2022/05/31 10:14:02;;;;;;;0.10;0.00;;;26.10;55.70;;;;;;5108207;28;20076;-74
2022/05/31 10:16:32;;;;;;;0.60;0.32;;;25.50;55.60;;;;;;5108365;28;20031;-74
2022/05/31 10:19:01;;;;;;;1.08;0.40;;;25.10;56.20;;;;;;5108348;28;20039;-75
2022/05/31 10:21:41;;;;;;;0.10;0.10;;;24.90;57.10;;;;;;5107884;28;20472;-75
2022/05/31 10:24:17;;;;;;;0.47;0.20;;;25.60;58.20;;;;;;5108127;28;20423;-73
2022/05/31 10:26:45;;;;;;;1.20;0.10;;;26.80;58.50;;;;;;5108069;28;20443;-74
2022/05/31 10:29:33;;;;;;;0.17;0.10;;;27.80;57.20;;;;;;5108256;28;20062;-72
2022/05/31 10:31:59;;;;;;;0.00;0.00;;;27.70;56.10;;;;;;5108196;28;20031;-75
2022/05/31 10:34:44;;;;;;;0.65;0.40;;;27.60;56.50;;;;;;5107824;28;20022;-73
2022/05/31 10:37:32;;;;;;;0.00;0.00;;;27.20;56.20;;;;;;5108552;28;20023;-72
2022/05/31 10:40:03;;;;;;;0.20;0.10;;;26.60;56.70;;;;;;5107175;28;20028;-73
2022/05/31 10:42:29;;;;;;;2.72;0.65;;;25.90;57.30;;;;;;5107562;28;20450;-75
2022/05/31 10:45:02;;;;;;;0.00;0.00;;;25.40;57.70;;;;;;5107657;28;20131;-75
2022/05/31 10:47:28;;;;;;;0.00;0.00;;;24.90;57.80;;;;;;5107330;28;20028;-74
2022/05/31 10:49:55;;;;;;;0.00;0.00;;;24.40;57.90;;;;;;5089758;28;20023;-73
2022/05/31 10:52:47;;;;;;;0.00;0.00;;;23.80;58.00;;;;;;5107731;28;20102;-75
2022/05/31 10:55:36;;;;;;;0.00;0.00;;;23.20;58.40;;;;;;5107424;28;20034;-75
2022/05/31 10:58:20;;;;;;;0.00;0.00;;;22.60;58.70;;;;;;5107801;28;20032;-73
2022/05/31 11:01:05;;;;;;;0.00;0.00;;;22.00;58.70;;;;;;5107725;28;20079;-76
2022/05/31 11:03:36;;;;;;;0.00;0.00;;;21.70;59.90;;;;;;5107217;28;20424;-74
2022/05/31 11:06:54;;;;;;;0.00;0.00;;;21.90;60.60;;;;;;5106834;28;20451;-78
2022/05/31 11:12:56;;;;;;;0.00;0.00;;;23.00;60.00;;;;;;5106669;28;20042;-74
2022/05/31 11:15:26;;;;;;;0.00;0.00;;;23.00;59.80;;;;;;5037471;28;20110;-75
2022/05/31 11:18:00;;;;;;;0.00;0.00;;;22.80;59.50;;;;;;5106521;28;20023;-73
2022/05/31 11:20:30;;;;;;;0.00;0.00;;;22.40;59.00;;;;;;5107312;28;20020;-75
2022/05/31 11:23:18;;;;;;;0.00;0.00;;;22.30;59.30;;;;;;5107288;28;20315;-75
2022/05/31 11:26:03;;;;;;;0.00;0.00;;;22.10;59.20;;;;;;5103174;28;20026;-74
2022/05/31 11:28:40;;;;;;;0.00;0.00;;;22.00;59.50;;;;;;5106451;28;20023;-74
2022/05/31 11:31:16;;;;;;;0.00;0.00;;;22.00;59.50;;;;;;5089285;28;20035;-75
2022/05/31 11:34:05;;;;;;;0.00;0.00;;;21.90;59.50;;;;;;5107554;28;20020;-75
2022/05/31 11:36:47;;;;;;;0.00;0.00;;;21.80;59.40;;;;;;5100658;28;20445;-74
2022/05/31 11:39:31;;;;;;;0.00;0.00;;;21.70;59.40;;;;;;5106195;28;20020;-75
2022/05/31 11:42:21;;;;;;;0.00;0.00;;;21.60;59.30;;;;;;5107534;28;20106;-74
2022/05/31 11:45:15;;;;;;;0.00;0.00;;;21.80;60.00;;;;;;5105265;28;20030;-75
2022/05/31 11:47:59;;;;;;;0.00;0.00;;;21.80;59.40;;;;;;5100743;28;20120;-74
2022/05/31 11:50:40;;;;;;;0.00;0.00;;;21.70;59.30;;;;;;5087046;28;20024;-75
2022/05/31 11:53:32;;;;;;;0.00;0.00;;;21.40;59.10;;;;;;5108960;28;20020;-73
2022/05/31 11:56:06;;;;;;;0.00;0.00;;;21.10;59.20;;;;;;5110252;28;20489;-75
2022/05/31 11:58:56;;;;;;;0.00;0.00;;;20.80;59.10;;;;;;5110374;28;20015;-74
2022/05/31 12:01:32;;;;;;;0.00;0.00;;;21.00;60.10;;;;;;5089171;28;20423;-75
2022/05/31 12:04:22;;;;;;;0.00;0.00;;;22.40;61.70;;;;;;5109832;28;20044;-76
2022/05/31 12:07:12;;;;;;;0.00;0.00;;;23.90;61.50;;;;;;5108510;28;20039;-74
2022/05/31 12:09:56;;;;;;;0.00;0.00;;;25.30;60.60;;;;;;5109815;28;20104;-73
2022/05/31 12:12:34;;;;;;;0.00;0.00;;;25.70;59.30;;;;;;5110530;28;20023;-73
2022/05/31 12:15:10;;;;;;;0.00;0.00;;;25.70;59.90;;;;;;5109822;28;20505;-74
2022/05/31 12:18:14;;;;;;;0.00;0.00;;;26.40;60.80;;;;;;5110083;28;20581;-73
2022/05/31 12:21:06;;;;;;;0.00;0.00;;;27.30;61.10;;;;;;5097472;28;20039;-72
2022/05/31 12:23:59;;;;;;;0.00;0.00;;;27.60;60.50;;;;;;5107708;28;20023;-73
2022/05/31 12:26:46;;;;;;;0.00;0.00;;;27.40;60.50;;;;;;5109209;28;20418;-73
2022/05/31 12:29:27;;;;;;;0.00;0.00;;;27.50;61.20;;;;;;5090167;28;20096;-74
2022/05/31 12:32:35;;;;;;;0.00;0.00;;;27.10;60.50;;;;;;5108713;28;20023;-74
2022/05/31 12:35:04;;;;;;;0.00;0.00;;;26.80;61.00;;;;;;5077553;28;20040;-73
2022/05/31 12:38:01;;;;;;;0.00;0.00;;;26.20;60.60;;;;;;5109422;28;20024;-75
2022/05/31 12:40:32;;;;;;;0.00;0.00;;;25.40;60.50;;;;;;5089957;28;20435;-74
2022/05/31 12:42:59;;;;;;;0.00;0.00;;;24.50;60.60;;;;;;5090122;28;20085;-73
2022/05/31 12:45:39;;;;;;;0.00;0.00;;;23.70;60.80;;;;;;5089907;28;20354;-72
2022/05/31 12:48:16;;;;;;;0.00;0.00;;;23.00;61.40;;;;;;5089778;28;20077;-74
2022/05/31 12:50:48;;;;;;;0.00;0.00;;;22.60;61.80;;;;;;5089985;28;20028;-73
2022/05/31 12:53:21;;;;;;;0.00;0.00;;;22.30;61.70;;;;;;5089950;28;20024;-72
2022/05/31 12:55:47;;;;;;;0.00;0.00;;;21.90;61.80;;;;;;5089849;28;20066;-75
2022/05/31 12:58:33;;;;;;;;;;;21.70;62.10;;;;;;5090418;28;20024;-72
2022/05/31 13:01:11;;;;;;;0.00;0.00;;;21.50;62.30;;;;;;5089197;28;19911;-72
2022/05/31 13:03:43;;;;;;;0.00;0.00;;;21.30;62.30;;;;;;5088239;28;20402;-73
2022/05/31 13:06:17;;;;;;;0.00;0.00;;;21.30;62.40;;;;;;5089548;28;20028;-72
2022/05/31 13:08:52;;;;;;;0.00;0.00;;;21.30;62.40;;;;;;5072053;28;20024;-72
2022/05/31 13:20:18;;;;;;;0.00;0.00;;;22.50;63.20;;;;;;5088809;28;20123;-72
2022/05/31 13:22:49;;;;;;;0.00;0.00;;;22.90;63.00;;;;;;5070562;28;20027;-73
2022/05/31 13:25:27;;;;;;;0.00;0.00;;;23.10;62.50;;;;;;5088544;28;20058;-73
2022/05/31 13:27:58;;;;;;;0.00;0.00;;;23.00;62.10;;;;;;5089222;28;20027;-73
2022/05/31 13:30:28;;;;;;;0.00;0.00;;;22.70;62.00;;;;;;5088924;28;20040;-73
2022/05/31 13:32:54;;;;;;;0.00;0.00;;;22.50;62.10;;;;;;5101691;28;20072;-72
2022/05/31 13:35:24;;;;;;;;;;;22.30;62.20;;;;;;5108194;28;20468;-73
2022/05/31 13:37:59;;;;;;;0.00;0.00;;;22.20;62.30;;;;;;5104104;28;19908;-72